Time;durP1;ratioP1;P1;durP2;ratioP2;P2;SDS_P1;SDS_P2;PMS_P1;PMS_P2;Temp;Humidity;BMP_temperature;BMP_pressure;BME280_temperature;BME280_humidity;BME280_pressure;Samples;Min_cycle;Max_cycle;Signal;HPM_P1;HPM_P2
2022/04/07 00:02:37;;;;;;;1.42;0.60;;;19.40;45.50;;;;;;6195469;28;20042;-65
2022/04/07 00:05:38;;;;;;;1.20;0.70;;;19.40;45.60;;;;;;6196324;28;20030;-65
2022/04/07 00:08:42;;;;;;;0.93;0.60;;;19.40;45.60;;;;;;6195854;28;20441;-65
2022/04/07 00:11:42;;;;;;;1.75;0.70;;;19.40;45.60;;;;;;6196011;28;20049;-65
2022/04/07 00:14:43;;;;;;;0.77;0.55;;;19.40;45.60;;;;;;6194590;28;20081;-65
2022/04/07 00:17:43;;;;;;;0.93;0.55;;;19.40;45.60;;;;;;6195878;28;20030;-65
2022/04/07 00:20:44;;;;;;;1.17;0.60;;;19.40;45.60;;;;;;6195991;28;20026;-65
2022/04/07 00:23:44;;;;;;;0.77;0.55;;;19.40;45.60;;;;;;6195657;28;20030;-65
2022/04/07 00:26:45;;;;;;;1.20;0.65;;;19.40;45.60;;;;;;6195699;28;20118;-65
2022/04/07 00:29:45;;;;;;;1.23;0.60;;;19.40;45.60;;;;;;6195127;28;20117;-66
2022/04/07 00:32:47;;;;;;;2.20;0.63;;;19.40;45.60;;;;;;6195754;28;20029;-65
2022/04/07 00:35:48;;;;;;;1.42;0.57;;;19.40;45.60;;;;;;6194978;28;20045;-65
2022/04/07 00:38:48;;;;;;;0.80;0.52;;;19.40;45.60;;;;;;6195248;28;20042;-65
2022/04/07 00:41:49;;;;;;;1.25;0.60;;;19.40;45.60;;;;;;6195306;28;20433;-65
2022/04/07 00:44:49;;;;;;;0.88;0.60;;;19.40;45.60;;;;;;6194954;28;20115;-65
2022/04/07 00:47:51;;;;;;;1.27;0.70;;;19.40;45.60;;;;;;6194859;28;20036;-65
2022/04/07 00:50:52;;;;;;;2.22;0.60;;;19.40;45.60;;;;;;6195029;28;20018;-65
2022/04/07 00:53:52;;;;;;;0.88;0.50;;;19.40;45.60;;;;;;6194977;28;20035;-65
2022/04/07 00:56:55;;;;;;;1.38;0.52;;;19.40;45.60;;;;;;6194102;28;20027;-65
2022/04/07 00:59:55;;;;;;;0.98;0.50;;;19.40;45.60;;;;;;6194411;28;20027;-65
2022/04/07 01:02:56;;;;;;;0.90;0.50;;;19.40;45.60;;;;;;6194384;28;20026;-66
2022/04/07 01:05:57;;;;;;;1.10;0.60;;;19.40;45.60;;;;;;6194285;28;20026;-66
2022/04/07 01:08:57;;;;;;;1.63;0.77;;;19.40;45.60;;;;;;6194832;28;20474;-65
2022/04/07 01:11:58;;;;;;;0.80;0.50;;;19.40;45.60;;;;;;6194527;28;20057;-65
2022/04/07 01:15:00;;;;;;;0.80;0.55;;;19.40;45.60;;;;;;6194498;28;20053;-65
2022/04/07 01:18:01;;;;;;;1.88;0.60;;;19.40;45.60;;;;;;6194598;28;20026;-65
2022/04/07 01:21:02;;;;;;;1.20;0.70;;;19.40;45.60;;;;;;6194201;28;20026;-65
2022/04/07 01:24:08;;;;;;;0.70;0.55;;;19.40;45.60;;;;;;6194322;28;20502;-65
2022/04/07 01:27:08;;;;;;;0.93;0.50;;;19.40;45.60;;;;;;6193908;28;20038;-65
2022/04/07 01:30:09;;;;;;;0.50;0.40;;;19.40;45.60;;;;;;6193144;28;20054;-65
2022/04/07 01:33:12;;;;;;;0.80;0.60;;;19.40;45.60;;;;;;6194240;28;20080;-66
2022/04/07 01:36:14;;;;;;;1.15;0.55;;;19.40;45.60;;;;;;6194057;28;20034;-65
2022/04/07 01:39:20;;;;;;;0.82;0.50;;;19.40;45.60;;;;;;6194264;28;20566;-65
2022/04/07 01:42:21;;;;;;;1.80;0.63;;;19.40;45.60;;;;;;6193822;28;20115;-65
2022/04/07 01:45:23;;;;;;;0.77;0.45;;;19.40;45.60;;;;;;6194333;28;20058;-65
2022/04/07 01:48:24;;;;;;;1.23;0.57;;;19.40;45.60;;;;;;6193574;28;20057;-65
2022/04/07 01:51:24;;;;;;;0.60;0.40;;;19.40;45.70;;;;;;6194075;28;20030;-65
2022/04/07 01:54:26;;;;;;;0.80;0.45;;;19.40;45.60;;;;;;6194113;28;20065;-65
2022/04/07 01:57:27;;;;;;;0.93;0.45;;;19.40;45.60;;;;;;6194349;28;20259;-65
2022/04/07 02:00:28;;;;;;;1.20;0.52;;;19.40;45.60;;;;;;6193812;28;20382;-66
2022/04/07 02:03:28;;;;;;;0.98;0.50;;;19.40;45.70;;;;;;6192031;28;20030;-65
2022/04/07 02:06:30;;;;;;;1.45;0.60;;;19.40;45.60;;;;;;6194054;28;20030;-65
2022/04/07 02:09:33;;;;;;;0.70;0.40;;;19.40;45.70;;;;;;6193602;28;20027;-65
2022/04/07 02:12:36;;;;;;;0.60;0.50;;;19.40;45.70;;;;;;6194042;28;20027;-65
2022/04/07 02:15:37;;;;;;;0.70;0.52;;;19.40;45.60;;;;;;6194013;28;20048;-65
2022/04/07 02:18:38;;;;;;;1.00;0.40;;;19.40;45.60;;;;;;6194383;28;20358;-65
2022/04/07 02:21:39;;;;;;;0.65;0.60;;;19.40;45.70;;;;;;6193925;28;20034;-65
2022/04/07 02:24:40;;;;;;;1.00;0.47;;;19.40;45.70;;;;;;6195057;28;20026;-65
2022/04/07 02:27:42;;;;;;;0.68;0.47;;;19.40;45.70;;;;;;6198548;28;20023;-65
2022/04/07 02:30:43;;;;;;;0.60;0.50;;;19.40;45.70;;;;;;6198040;28;20302;-65
2022/04/07 02:33:44;;;;;;;0.85;0.50;;;19.40;45.70;;;;;;6196670;28;20025;-65
2022/04/07 02:36:44;;;;;;;0.40;0.40;;;19.40;45.70;;;;;;6198714;28;20034;-65
2022/04/07 02:39:45;;;;;;;0.52;0.40;;;19.40;45.70;;;;;;6197914;28;20039;-65
2022/04/07 02:42:45;;;;;;;0.52;0.40;;;19.40;45.70;;;;;;6197858;28;20041;-65
2022/04/07 02:45:46;;;;;;;0.75;0.43;;;19.40;45.70;;;;;;6198135;28;20416;-65
2022/04/07 02:48:46;;;;;;;0.80;0.50;;;19.40;45.70;;;;;;6198080;28;20041;-65
2022/04/07 02:51:47;;;;;;;1.00;0.50;;;19.40;45.80;;;;;;6197828;28;20081;-65
2022/04/07 02:54:47;;;;;;;0.77;0.30;;;19.40;45.70;;;;;;6197865;28;20045;-65
2022/04/07 02:57:48;;;;;;;0.40;0.40;;;19.40;45.70;;;;;;6197807;28;20038;-65
2022/04/07 03:00:48;;;;;;;0.77;0.50;;;19.40;45.70;;;;;;6197650;28;20053;-65
2022/04/07 03:03:49;;;;;;;0.60;0.50;;;19.40;45.70;;;;;;6197369;28;20023;-65
2022/04/07 03:06:52;;;;;;;0.50;0.47;;;19.40;45.70;;;;;;6197953;28;20073;-66
2022/04/07 03:09:52;;;;;;;0.57;0.50;;;19.40;45.70;;;;;;6197266;28;20030;-65
2022/04/07 03:12:53;;;;;;;1.27;0.40;;;19.40;45.70;;;;;;6197419;28;20037;-65
2022/04/07 03:15:54;;;;;;;1.05;0.47;;;19.40;45.70;;;;;;6196882;28;20108;-65
2022/04/07 03:18:55;;;;;;;1.40;0.70;;;19.40;45.70;;;;;;6197371;28;20102;-66
2022/04/07 03:21:57;;;;;;;1.55;0.43;;;19.40;45.70;;;;;;6197419;28;20029;-65
2022/04/07 03:24:57;;;;;;;2.42;0.55;;;19.40;45.70;;;;;;6196666;28;20023;-65
2022/04/07 03:27:57;;;;;;;0.35;0.30;;;19.40;45.70;;;;;;6196512;28;20117;-66
2022/04/07 03:30:58;;;;;;;0.38;0.35;;;19.40;45.70;;;;;;6196669;28;20073;-65
2022/04/07 03:33:59;;;;;;;0.40;0.40;;;19.40;45.70;;;;;;6196491;28;20516;-65
2022/04/07 03:37:00;;;;;;;0.77;0.30;;;19.40;45.70;;;;;;6195896;28;20031;-66
2022/04/07 03:40:00;;;;;;;0.70;0.30;;;19.40;45.70;;;;;;6196623;28;20026;-65
2022/04/07 03:43:01;;;;;;;0.60;0.38;;;19.40;45.80;;;;;;6196414;28;20211;-65
2022/04/07 03:46:02;;;;;;;0.50;0.40;;;19.40;45.70;;;;;;6196560;28;20038;-65
2022/04/07 03:49:03;;;;;;;0.82;0.43;;;19.40;45.70;;;;;;6196613;28;20543;-65
2022/04/07 03:52:04;;;;;;;0.80;0.43;;;19.40;45.80;;;;;;6196141;28;20112;-65
2022/04/07 03:55:05;;;;;;;1.80;0.40;;;19.40;45.70;;;;;;6196316;28;20035;-65
2022/04/07 03:58:06;;;;;;;0.68;0.50;;;19.40;45.70;;;;;;6196362;28;20061;-65
2022/04/07 04:01:06;;;;;;;0.70;0.40;;;19.40;45.80;;;;;;6196155;28;20030;-65
2022/04/07 04:04:07;;;;;;;0.30;0.30;;;19.40;45.80;;;;;;6195875;28;20036;-65
2022/04/07 04:07:07;;;;;;;0.85;0.35;;;19.40;45.70;;;;;;6196560;28;20393;-65
2022/04/07 04:10:08;;;;;;;0.30;0.30;;;19.40;45.80;;;;;;6195540;28;20030;-65
2022/04/07 04:13:09;;;;;;;0.38;0.32;;;19.40;45.70;;;;;;6196144;28;20018;-65
2022/04/07 04:16:09;;;;;;;1.08;0.40;;;19.40;45.70;;;;;;6195913;28;20041;-65
2022/04/07 04:19:11;;;;;;;0.75;0.32;;;19.40;45.70;;;;;;6196017;28;20030;-65
2022/04/07 04:22:11;;;;;;;1.15;0.50;;;19.40;45.70;;;;;;6195374;28;20053;-65
2022/04/07 04:25:12;;;;;;;0.47;0.38;;;19.40;45.70;;;;;;6195735;28;20027;-65
2022/04/07 04:28:13;;;;;;;0.77;0.50;;;19.40;45.60;;;;;;6195378;28;20069;-65
2022/04/07 04:31:14;;;;;;;0.73;0.60;;;19.40;45.60;;;;;;6195561;28;20026;-65
2022/04/07 04:34:14;;;;;;;0.60;0.38;;;19.40;45.60;;;;;;6195137;28;20112;-65
2022/04/07 04:37:15;;;;;;;0.90;0.50;;;19.40;45.60;;;;;;6195377;28;20462;-65
2022/04/07 04:40:15;;;;;;;0.30;0.30;;;19.40;45.60;;;;;;6195641;28;20026;-65
2022/04/07 04:43:15;;;;;;;0.82;0.45;;;19.40;45.60;;;;;;6195423;28;20397;-65
2022/04/07 04:46:16;;;;;;;0.30;0.20;;;19.40;45.60;;;;;;6195465;28;20070;-65
2022/04/07 04:49:16;;;;;;;0.47;0.32;;;19.40;45.60;;;;;;6194734;28;20081;-65
2022/04/07 04:52:17;;;;;;;0.40;0.30;;;19.40;45.60;;;;;;6194998;28;20112;-65
2022/04/07 04:55:19;;;;;;;0.40;0.30;;;19.40;45.60;;;;;;6195043;28;20038;-65
2022/04/07 04:58:19;;;;;;;0.70;0.50;;;19.40;45.50;;;;;;6195358;28;20030;-66
2022/04/07 05:01:20;;;;;;;0.40;0.32;;;19.40;45.60;;;;;;6190236;28;20068;-65
2022/04/07 05:04:20;;;;;;;0.47;0.35;;;19.40;45.60;;;;;;6166855;28;20117;-66
2022/04/07 05:07:21;;;;;;;0.68;0.50;;;19.40;45.60;;;;;;6189794;28;20077;-65
2022/04/07 05:10:21;;;;;;;0.85;0.50;;;19.40;45.60;;;;;;6193159;28;20440;-65
2022/04/07 05:13:22;;;;;;;0.40;0.30;;;19.50;46.30;;;;;;6193311;28;20023;-65
2022/04/07 05:16:22;;;;;;;3.53;0.47;;;19.50;46.20;;;;;;6193194;28;20466;-66
2022/04/07 05:19:23;;;;;;;2.30;0.60;;;19.60;46.00;;;;;;6193379;28;20022;-66
2022/04/07 05:22:23;;;;;;;1.50;0.47;;;19.70;45.90;;;;;;6193119;28;20481;-66
2022/04/07 05:25:24;;;;;;;4.88;0.50;;;19.70;45.80;;;;;;6192268;28;20097;-66
2022/04/07 05:28:24;;;;;;;3.42;0.50;;;19.80;45.80;;;;;;6196678;28;20042;-65
2022/04/07 05:31:25;;;;;;;0.50;0.40;;;19.80;45.50;;;;;;6193961;28;20036;-65
2022/04/07 05:34:25;;;;;;;3.05;0.70;;;19.70;45.20;;;;;;6192687;28;20058;-64
2022/04/07 05:37:26;;;;;;;5.10;0.68;;;19.70;45.70;;;;;;6193285;28;20528;-63
2022/04/07 05:40:27;;;;;;;1.33;0.60;;;19.80;45.70;;;;;;6192602;28;20050;-68
2022/04/07 05:43:27;;;;;;;5.30;0.50;;;19.90;45.90;;;;;;6192485;28;20481;-67
2022/04/07 05:46:28;;;;;;;0.75;0.40;;;19.90;45.80;;;;;;6192454;28;20122;-65
2022/04/07 05:49:28;;;;;;;5.25;0.60;;;19.90;45.30;;;;;;6192655;28;20117;-68
2022/04/07 05:52:29;;;;;;;1.65;0.68;;;20.00;45.60;;;;;;6192218;28;20084;-63
2022/04/07 05:55:29;;;;;;;2.00;0.40;;;20.00;45.30;;;;;;6192285;28;20104;-64
2022/04/07 05:58:30;;;;;;;1.02;0.50;;;20.00;45.10;;;;;;6191660;28;20533;-63
2022/04/07 06:01:30;;;;;;;2.13;0.40;;;20.10;45.20;;;;;;6187257;28;20031;-65
2022/04/07 06:04:31;;;;;;;1.95;0.30;;;20.10;45.40;;;;;;6194192;28;20066;-65
2022/04/07 06:07:31;;;;;;;2.45;0.50;;;20.10;44.90;;;;;;6194013;28;20030;-64
2022/04/07 06:10:34;;;;;;;6.85;0.80;;;20.10;45.30;;;;;;6202609;28;20056;-64
2022/04/07 06:13:34;;;;;;;3.90;0.50;;;20.20;45.60;;;;;;6218329;28;20070;-64
2022/04/07 06:16:35;;;;;;;8.98;0.70;;;20.20;45.40;;;;;;6208153;28;20114;-64
2022/04/07 06:19:36;;;;;;;2.22;0.70;;;20.30;45.60;;;;;;6194365;28;20022;-65
2022/04/07 06:22:37;;;;;;;4.03;0.70;;;20.30;45.10;;;;;;6194269;28;20037;-66
2022/04/07 06:25:37;;;;;;;3.55;0.70;;;20.20;45.20;;;;;;6193299;28;20157;-64
2022/04/07 06:28:40;;;;;;;4.63;0.93;;;20.30;45.60;;;;;;6194278;28;20213;-64
2022/04/07 06:31:40;;;;;;;2.10;0.55;;;20.30;45.60;;;;;;6193809;28;20467;-67
2022/04/07 06:34:41;;;;;;;2.17;0.95;;;20.30;45.30;;;;;;6193820;28;20030;-64
2022/04/07 06:37:55;;;;;;;3.60;0.68;;;20.40;45.70;;;;;;6194124;28;20023;-64
2022/04/07 06:41:00;;;;;;;2.63;0.60;;;20.30;45.60;;;;;;6193787;28;20064;-67
2022/04/07 06:44:01;;;;;;;3.20;0.90;;;20.40;45.50;;;;;;6194337;28;20101;-66
2022/04/07 06:47:01;;;;;;;1.60;0.82;;;20.40;45.20;;;;;;6193896;28;20035;-63
2022/04/07 06:50:02;;;;;;;1.88;0.80;;;20.30;45.50;;;;;;6194207;28;20027;-67
2022/04/07 06:53:02;;;;;;;3.08;0.73;;;20.30;45.50;;;;;;6193664;28;20034;-63
2022/04/07 06:56:03;;;;;;;3.92;0.73;;;20.30;44.90;;;;;;6193878;28;20049;-64
2022/04/07 06:59:05;;;;;;;2.63;0.70;;;20.30;45.20;;;;;;6193509;28;20034;-66
2022/04/07 07:02:06;;;;;;;3.45;0.77;;;20.20;45.00;;;;;;6193647;28;20062;-64
2022/04/07 07:05:07;;;;;;;3.53;0.77;;;20.20;45.50;;;;;;6193119;28;20621;-64
2022/04/07 07:08:20;;;;;;;5.60;0.82;;;20.30;45.50;;;;;;6193632;28;20019;-64
2022/04/07 07:11:20;;;;;;;2.03;0.50;;;20.40;45.80;;;;;;6210482;28;20041;-67
2022/04/07 07:14:21;;;;;;;4.38;0.70;;;20.40;44.80;;;;;;6221860;28;20330;-64
2022/04/07 07:17:21;;;;;;;3.80;0.63;;;20.30;45.10;;;;;;6220728;28;20061;-64
2022/04/07 07:20:22;;;;;;;2.25;0.80;;;20.40;45.50;;;;;;6222686;28;20056;-67
2022/04/07 07:23:22;;;;;;;1.80;0.60;;;20.40;44.80;;;;;;6220732;28;20026;-65
2022/04/07 07:26:23;;;;;;;1.02;0.47;;;20.40;45.30;;;;;;6204648;28;20142;-63
2022/04/07 07:29:23;;;;;;;1.60;0.55;;;20.40;45.40;;;;;;6197654;28;20412;-66
2022/04/07 07:32:24;;;;;;;3.72;0.70;;;20.40;45.30;;;;;;6196959;28;20055;-65
2022/04/07 07:35:25;;;;;;;4.60;0.55;;;20.40;45.40;;;;;;6197465;28;20045;-67
2022/04/07 07:38:25;;;;;;;4.35;0.40;;;20.40;45.00;;;;;;6197623;28;20034;-68
2022/04/07 07:41:26;;;;;;;1.23;0.57;;;20.30;45.50;;;;;;6197138;28;20038;-65
2022/04/07 07:44:26;;;;;;;1.92;0.40;;;20.30;45.30;;;;;;6196834;28;20053;-66
2022/04/07 07:47:27;;;;;;;1.80;0.52;;;20.40;45.30;;;;;;6197401;28;20382;-67
2022/04/07 07:50:27;;;;;;;0.35;0.30;;;20.30;45.30;;;;;;6197547;28;20539;-67
2022/04/07 07:53:28;;;;;;;3.15;0.77;;;20.20;45.60;;;;;;6198636;28;20041;-67
2022/04/07 07:56:28;;;;;;;3.90;0.52;;;20.20;45.80;;;;;;6195869;28;20046;-67
2022/04/07 07:59:29;;;;;;;1.58;0.47;;;20.10;45.70;;;;;;6196852;28;20477;-66
2022/04/07 08:02:31;;;;;;;1.63;0.40;;;20.10;45.80;;;;;;6196080;28;20057;-67
2022/04/07 08:05:31;;;;;;;0.82;0.40;;;20.10;45.90;;;;;;6197261;28;20026;-67
2022/04/07 08:08:32;;;;;;;1.98;0.73;;;20.10;46.00;;;;;;6197264;28;20034;-67
2022/04/07 08:11:32;;;;;;;6.28;0.80;;;20.10;45.90;;;;;;6205023;28;20033;-67
2022/04/07 08:14:33;;;;;;;1.58;0.45;;;20.10;45.80;;;;;;6196535;28;20394;-67
2022/04/07 08:17:34;;;;;;;5.68;0.60;;;20.10;45.80;;;;;;6196992;28;20057;-67
2022/04/07 08:20:35;;;;;;;3.58;0.80;;;20.10;45.90;;;;;;6195757;28;20473;-67
2022/04/07 08:23:35;;;;;;;0.95;0.40;;;20.10;45.90;;;;;;6196470;28;20042;-67
2022/04/07 08:26:36;;;;;;;2.35;0.65;;;20.10;45.90;;;;;;6196038;28;20390;-67
2022/04/07 08:29:36;;;;;;;1.25;0.43;;;20.00;45.80;;;;;;6196197;28;20050;-67
2022/04/07 08:32:37;;;;;;;1.77;0.35;;;20.00;46.00;;;;;;6194658;28;20029;-67
2022/04/07 08:35:37;;;;;;;2.67;0.60;;;20.00;45.90;;;;;;6196111;28;20035;-67
2022/04/07 08:38:39;;;;;;;1.60;0.63;;;20.00;45.90;;;;;;6195836;28;20046;-67
2022/04/07 08:41:40;;;;;;;2.05;0.55;;;20.00;46.00;;;;;;6195958;28;20548;-66
2022/04/07 08:44:40;;;;;;;0.47;0.40;;;20.00;46.00;;;;;;6195264;28;20026;-67
2022/04/07 08:47:41;;;;;;;3.67;0.75;;;19.90;45.90;;;;;;6196069;28;20389;-66
2022/04/07 08:50:43;;;;;;;2.90;0.90;;;19.90;45.80;;;;;;6195866;28;20345;-66
2022/04/07 08:53:44;;;;;;;2.85;0.60;;;19.90;45.60;;;;;;6195810;28;20153;-67
2022/04/07 08:56:45;;;;;;;23.08;1.20;;;19.90;46.10;;;;;;6195154;28;20034;-66
2022/04/07 08:59:46;;;;;;;18.02;1.58;;;19.80;45.50;;;;;;6195445;28;20034;-66
2022/04/07 09:02:46;;;;;;;8.57;1.02;;;19.80;45.30;;;;;;6195137;28;20027;-67
2022/04/07 09:05:55;;;;;;;5.05;0.90;;;19.70;45.00;;;;;;6195180;28;20027;-67
2022/04/07 09:09:12;;;;;;;4.20;0.80;;;19.80;45.10;;;;;;6194153;28;20092;-67
2022/04/07 09:12:23;;;;;;;5.07;0.60;;;19.70;44.90;;;;;;6217231;28;20018;-67
2022/04/07 09:15:27;;;;;;;1.65;0.80;;;19.70;44.90;;;;;;6219241;28;20572;-66
2022/04/07 09:18:27;;;;;;;1.92;0.90;;;19.70;45.00;;;;;;6219556;28;20026;-67
2022/04/07 09:21:28;;;;;;;3.47;0.60;;;19.70;44.90;;;;;;6219636;28;20022;-67
2022/04/07 09:24:29;;;;;;;5.13;1.00;;;19.60;44.60;;;;;;6216853;28;20026;-67
2022/04/07 09:27:29;;;;;;;1.70;0.70;;;19.60;44.60;;;;;;6195028;28;20084;-67
2022/04/07 09:30:37;;;;;;;4.60;0.70;;;19.60;44.60;;;;;;6194528;28;20058;-66
2022/04/07 09:33:38;;;;;;;1.75;0.52;;;19.60;44.60;;;;;;6178063;28;20040;-67
2022/04/07 09:36:38;;;;;;;0.75;0.47;;;19.60;44.50;;;;;;6191703;28;20034;-66
2022/04/07 09:39:43;;;;;;;0.63;0.38;;;19.50;44.50;;;;;;6194997;28;20395;-66
2022/04/07 09:42:44;;;;;;;1.13;0.50;;;19.50;44.50;;;;;;6193689;28;20022;-67
2022/04/07 09:45:45;;;;;;;1.58;0.50;;;19.50;44.40;;;;;;6194209;28;20030;-67
2022/04/07 09:48:59;;;;;;;1.42;0.35;;;19.50;44.10;;;;;;6194601;28;20374;-66
2022/04/07 09:52:01;;;;;;;3.95;0.50;;;19.50;44.10;;;;;;6194388;28;20594;-67
2022/04/07 09:55:06;;;;;;;1.88;0.52;;;19.50;44.30;;;;;;6194122;28;20034;-67
2022/04/07 09:58:08;;;;;;;2.13;0.50;;;19.50;44.30;;;;;;6194620;28;20496;-67
2022/04/07 10:01:10;;;;;;;0.90;0.50;;;19.50;44.00;;;;;;6194273;28;20034;-67
2022/04/07 10:04:10;;;;;;;0.77;0.30;;;19.50;44.00;;;;;;6193713;28;20496;-67
2022/04/07 10:07:12;;;;;;;0.60;0.40;;;19.50;44.10;;;;;;6194680;28;20034;-67
2022/04/07 10:10:13;;;;;;;1.25;0.30;;;19.40;43.90;;;;;;6199847;28;20461;-66
2022/04/07 10:13:14;;;;;;;3.95;0.47;;;19.40;43.80;;;;;;6218763;28;20018;-67
2022/04/07 10:16:18;;;;;;;2.75;0.40;;;19.40;43.50;;;;;;6218687;28;20464;-67
2022/04/07 10:19:42;;;;;;;8.77;0.63;;;19.40;43.20;;;;;;6218641;28;20237;-66
2022/04/07 10:23:07;;;;;;;2.78;0.50;;;19.50;43.40;;;;;;6210443;28;20042;-66
2022/04/07 10:26:10;;;;;;;7.27;0.60;;;19.50;43.50;;;;;;6207078;28;20029;-66
2022/04/07 10:29:22;;;;;;;1.98;0.45;;;19.50;43.70;;;;;;6218718;28;20342;-66
2022/04/07 10:32:23;;;;;;;3.80;0.47;;;19.60;43.90;;;;;;6194863;28;20549;-67
2022/04/07 10:35:29;;;;;;;7.55;0.43;;;19.60;44.00;;;;;;6193698;28;20111;-66
2022/04/07 10:38:37;;;;;;;0.57;0.30;;;19.60;44.10;;;;;;6194547;28;20085;-66
2022/04/07 10:41:38;;;;;;;4.28;0.50;;;19.60;44.10;;;;;;6196568;28;20392;-67
2022/04/07 10:44:38;;;;;;;1.17;0.55;;;19.60;44.30;;;;;;6197420;28;20031;-67
2022/04/07 10:47:40;;;;;;;1.73;0.45;;;19.60;44.40;;;;;;6198289;28;20030;-67
2022/04/07 10:50:51;;;;;;;0.85;0.30;;;19.60;44.50;;;;;;6196421;28;20033;-66
2022/04/07 10:53:54;;;;;;;2.83;0.40;;;19.50;44.40;;;;;;6215715;28;20030;-67
2022/04/07 10:56:57;;;;;;;2.72;0.30;;;19.60;44.60;;;;;;6208291;28;20029;-67
2022/04/07 11:00:02;;;;;;;0.50;0.35;;;19.50;44.60;;;;;;6207382;28;20077;-67
2022/04/07 11:03:14;;;;;;;2.53;0.20;;;19.50;44.70;;;;;;6203028;28;20473;-67
2022/04/07 11:06:21;;;;;;;3.00;0.32;;;19.50;44.80;;;;;;6200341;28;20054;-67
2022/04/07 11:09:22;;;;;;;1.85;0.50;;;19.60;44.90;;;;;;6173617;28;20587;-67
2022/04/07 11:12:24;;;;;;;1.92;0.50;;;19.50;44.90;;;;;;6192329;28;20022;-67
2022/04/07 11:15:47;;;;;;;0.35;0.20;;;19.50;44.90;;;;;;6188825;28;20508;-67
2022/04/07 11:19:10;;;;;;;0.90;0.35;;;19.50;45.00;;;;;;6199424;28;20045;-67
2022/04/07 11:22:12;;;;;;;1.85;0.82;;;19.50;45.00;;;;;;6175434;28;20023;-67
2022/04/07 11:25:14;;;;;;;1.17;0.40;;;19.50;45.00;;;;;;6189593;28;20030;-66
2022/04/07 11:28:19;;;;;;;0.93;0.40;;;19.50;45.10;;;;;;6219572;28;20054;-66
2022/04/07 11:31:48;;;;;;;1.45;0.52;;;19.50;45.10;;;;;;6195515;28;20031;-67
2022/04/07 11:34:51;;;;;;;0.70;0.30;;;19.50;45.20;;;;;;6180831;28;20054;-67
2022/04/07 11:37:51;;;;;;;0.82;0.40;;;19.50;45.20;;;;;;6193388;28;20033;-67
2022/04/07 11:40:58;;;;;;;0.20;0.20;;;19.60;45.30;;;;;;6196334;28;20485;-67
2022/04/07 11:44:07;;;;;;;1.27;0.38;;;19.60;45.10;;;;;;6195427;28;20041;-67
2022/04/07 11:47:22;;;;;;;1.20;0.40;;;19.70;44.80;;;;;;6196949;28;20032;-67
2022/04/07 11:50:22;;;;;;;1.55;0.60;;;19.70;45.50;;;;;;6196661;28;20034;-67
2022/04/07 11:53:23;;;;;;;1.25;0.40;;;19.70;44.80;;;;;;6195734;28;20046;-67
2022/04/07 11:56:27;;;;;;;2.63;0.60;;;19.70;45.00;;;;;;6196393;28;20070;-68
2022/04/07 11:59:37;;;;;;;1.90;0.45;;;19.80;44.80;;;;;;6195437;28;20355;-67
2022/04/07 12:02:37;;;;;;;7.38;0.50;;;19.70;44.70;;;;;;6190117;28;20045;-67
2022/04/07 12:05:43;;;;;;;1.42;0.50;;;19.70;44.90;;;;;;6196410;28;20031;-67
2022/04/07 12:08:44;;;;;;;1.05;0.50;;;19.70;45.00;;;;;;6195894;28;20033;-67
2022/04/07 12:11:45;;;;;;;3.17;0.30;;;19.70;45.10;;;;;;6196408;28;20015;-67
2022/04/07 12:14:46;;;;;;;2.40;0.30;;;19.70;45.30;;;;;;6195393;28;20037;-66
2022/04/07 12:18:00;;;;;;;0.82;0.30;;;19.70;45.20;;;;;;6196448;28;20015;-67
2022/04/07 12:21:02;;;;;;;1.85;0.40;;;19.60;45.20;;;;;;6195056;28;20026;-67
2022/04/07 12:24:09;;;;;;;0.38;0.22;;;19.60;45.50;;;;;;6195762;28;20030;-67
2022/04/07 12:27:25;;;;;;;1.15;0.45;;;19.60;45.30;;;;;;6195701;28;20351;-67
2022/04/07 12:30:45;;;;;;;1.23;0.35;;;19.60;45.30;;;;;;6195349;28;20054;-67
2022/04/07 12:33:47;;;;;;;1.02;0.20;;;19.60;45.40;;;;;;6194848;28;20030;-68
2022/04/07 12:36:48;;;;;;;1.70;0.40;;;19.70;45.40;;;;;;6195674;28;20030;-67
2022/04/07 12:39:48;;;;;;;2.03;0.28;;;19.70;45.30;;;;;;6195323;28;20114;-68
2022/04/07 12:42:53;;;;;;;2.85;0.40;;;19.70;45.80;;;;;;6195258;28;20117;-68
2022/04/07 12:45:57;;;;;;;3.90;0.40;;;19.70;45.40;;;;;;6195454;28;20022;-68
2022/04/07 12:49:05;;;;;;;1.33;0.30;;;19.70;45.30;;;;;;6195662;28;20031;-68
2022/04/07 12:52:07;;;;;;;2.28;0.20;;;19.70;45.30;;;;;;6195112;28;20057;-68
2022/04/07 12:55:15;;;;;;;2.60;0.30;;;19.70;45.40;;;;;;6194872;28;20080;-68
2022/04/07 12:58:25;;;;;;;0.77;0.30;;;19.70;45.40;;;;;;6194516;28;20390;-68
2022/04/07 13:01:25;;;;;;;0.30;0.20;;;19.70;45.50;;;;;;6194992;28;20041;-68
2022/04/07 13:04:49;;;;;;;0.63;0.35;;;19.70;45.40;;;;;;6192876;28;20058;-68
2022/04/07 13:07:51;;;;;;;2.20;0.60;;;19.70;45.50;;;;;;6194848;28;20109;-68
2022/04/07 13:10:51;;;;;;;0.30;0.30;;;19.70;45.50;;;;;;6195325;28;20022;-68
2022/04/07 13:13:52;;;;;;;0.77;0.20;;;19.70;45.50;;;;;;6194320;28;20073;-68
2022/04/07 13:16:53;;;;;;;1.27;0.40;;;19.70;45.60;;;;;;6194930;28;20106;-67
2022/04/07 13:19:53;;;;;;;0.10;0.10;;;19.70;45.50;;;;;;6200495;28;20044;-68
2022/04/07 13:22:54;;;;;;;0.80;0.38;;;19.70;45.60;;;;;;6202992;28;20497;-68
2022/04/07 13:25:54;;;;;;;0.47;0.20;;;19.70;45.60;;;;;;6193495;28;20026;-68
2022/04/07 13:28:55;;;;;;;2.22;0.20;;;19.60;45.60;;;;;;6194126;28;20085;-68
2022/04/07 13:31:56;;;;;;;1.95;0.35;;;19.70;45.60;;;;;;6194188;28;20482;-68
2022/04/07 13:34:58;;;;;;;2.38;0.30;;;19.70;45.60;;;;;;6193838;28;20018;-68
2022/04/07 13:38:02;;;;;;;1.50;0.30;;;19.70;45.70;;;;;;6194424;28;20034;-68
2022/04/07 13:41:04;;;;;;;0.85;0.45;;;19.60;45.60;;;;;;6194488;28;20432;-69
2022/04/07 13:44:05;;;;;;;0.68;0.40;;;19.60;45.70;;;;;;6193265;28;20049;-69
2022/04/07 13:47:05;;;;;;;2.75;0.28;;;19.60;45.70;;;;;;6194466;28;20464;-69
2022/04/07 13:50:06;;;;;;;4.00;0.35;;;19.60;45.60;;;;;;6194234;28;20393;-69
2022/04/07 13:53:08;;;;;;;1.05;0.40;;;19.70;45.70;;;;;;6193990;28;20030;-69
2022/04/07 13:56:09;;;;;;;0.63;0.25;;;19.70;45.70;;;;;;6193984;28;20046;-69
2022/04/07 13:59:09;;;;;;;5.35;0.57;;;19.70;45.80;;;;;;6194219;28;20044;-69
2022/04/07 14:02:11;;;;;;;1.23;0.40;;;19.70;45.80;;;;;;6193976;28;20026;-68
2022/04/07 14:05:11;;;;;;;0.57;0.30;;;19.70;45.70;;;;;;6193587;28;20041;-69
2022/04/07 14:08:13;;;;;;;0.98;0.50;;;19.70;45.80;;;;;;6193664;28;20030;-69
2022/04/07 14:11:14;;;;;;;0.85;0.30;;;19.70;45.80;;;;;;6192637;28;20034;-69
2022/04/07 14:14:15;;;;;;;2.65;0.50;;;19.70;45.80;;;;;;6193483;28;20034;-68
2022/04/07 14:17:17;;;;;;;1.00;0.43;;;19.60;45.80;;;;;;6190753;28;20089;-68
2022/04/07 14:20:17;;;;;;;0.88;0.32;;;19.70;45.80;;;;;;6199621;28;20030;-71
2022/04/07 14:23:18;;;;;;;1.13;0.30;;;19.60;45.80;;;;;;6203338;28;20030;-69
2022/04/07 14:26:19;;;;;;;3.80;0.40;;;19.70;45.90;;;;;;6197839;28;20026;-69
2022/04/07 14:29:19;;;;;;;1.67;0.30;;;19.60;45.80;;;;;;6198193;28;20062;-69
2022/04/07 14:32:20;;;;;;;3.45;0.57;;;19.60;45.90;;;;;;6198373;28;20030;-69
2022/04/07 14:35:20;;;;;;;1.17;0.40;;;19.60;46.00;;;;;;6197720;28;20065;-69
2022/04/07 14:38:21;;;;;;;5.20;0.43;;;19.60;46.00;;;;;;6198459;28;20058;-68
2022/04/07 14:41:22;;;;;;;2.28;0.57;;;19.60;45.90;;;;;;6198212;28;20034;-69
2022/04/07 14:44:22;;;;;;;2.00;0.50;;;19.60;45.80;;;;;;6198365;28;20029;-69
2022/04/07 14:47:23;;;;;;;4.93;0.88;;;19.60;45.60;;;;;;6197985;28;20023;-69
2022/04/07 14:50:23;;;;;;;4.45;0.70;;;19.60;45.80;;;;;;6198400;28;20034;-68
2022/04/07 14:53:24;;;;;;;1.40;0.40;;;19.60;45.90;;;;;;6197076;28;20171;-69
2022/04/07 14:56:25;;;;;;;1.58;0.50;;;19.60;45.80;;;;;;6197973;28;20058;-69
2022/04/07 14:59:25;;;;;;;1.40;0.30;;;19.60;45.80;;;;;;6198260;28;20023;-69
2022/04/07 15:02:26;;;;;;;3.00;0.52;;;19.60;45.80;;;;;;6197815;28;20098;-69
2022/04/07 15:05:26;;;;;;;0.70;0.40;;;19.60;45.80;;;;;;6197763;28;20486;-69
2022/04/07 15:08:27;;;;;;;1.02;0.43;;;19.60;45.80;;;;;;6197065;28;20041;-69
2022/04/07 15:11:27;;;;;;;0.68;0.38;;;19.60;45.90;;;;;;6197614;28;20031;-69
2022/04/07 15:14:28;;;;;;;0.93;0.40;;;19.60;45.90;;;;;;6196464;28;20034;-69
2022/04/07 15:17:30;;;;;;;0.93;0.35;;;19.60;45.80;;;;;;6196346;28;20022;-69
2022/04/07 15:20:31;;;;;;;3.28;0.52;;;19.60;45.90;;;;;;6208840;28;20069;-68
2022/04/07 15:23:31;;;;;;;2.13;0.50;;;19.60;45.90;;;;;;6216561;28;20066;-68
2022/04/07 15:26:32;;;;;;;0.40;0.30;;;19.60;45.90;;;;;;6196083;28;20038;-69
2022/04/07 15:29:33;;;;;;;2.10;0.47;;;19.60;46.10;;;;;;6195425;28;20050;-69
2022/04/07 15:32:34;;;;;;;3.50;0.50;;;19.70;45.90;;;;;;6196037;28;20558;-68
2022/04/07 15:35:39;;;;;;;2.75;0.45;;;19.70;45.80;;;;;;6192086;28;20034;-69
2022/04/07 15:38:39;;;;;;;12.68;0.70;;;19.70;45.80;;;;;;6171684;28;20058;-69
2022/04/07 15:41:41;;;;;;;3.05;0.35;;;19.70;45.90;;;;;;6171335;28;20490;-69
2022/04/07 15:44:42;;;;;;;2.03;0.30;;;19.70;45.80;;;;;;6188811;28;20050;-69
2022/04/07 15:47:42;;;;;;;3.00;0.60;;;19.70;45.90;;;;;;6195973;28;20032;-69